Time;durP1;ratioP1;P1;durP2;ratioP2;P2;SDS_P1;SDS_P2;PMS_P1;PMS_P2;Temp;Humidity;BMP_temperature;BMP_pressure;BME280_temperature;BME280_humidity;BME280_pressure;Samples;Min_cycle;Max_cycle;Signal;HPM_P1;HPM_P2
2022/05/03 00:00:12;;;;;;;;;;;22.80;40.00;;;;;;688717;28;807;-78
2022/05/03 00:00:35;;;;;;;;;;;22.80;40.00;;;;;;688807;28;942;-82
2022/05/03 00:01:03;;;;;;;;;;;22.80;40.10;;;;;;688738;28;1516;-81
2022/05/03 00:01:46;;;;;;;;;;;22.80;40.20;;;;;;688741;28;882;-82
2022/05/03 00:02:27;;;;;;;;;;;22.80;40.20;;;;;;688964;28;874;-84
2022/05/03 00:03:00;;;;;;;;;;;22.80;40.10;;;;;;688744;28;927;-84
2022/05/03 00:03:28;;;;;;;;;;;22.80;40.50;;;;;;688666;28;941;-83
2022/05/03 00:04:00;;;;;;;;;;;22.80;40.40;;;;;;688555;28;1516;-83
2022/05/03 00:04:29;;;;;;;;;;;22.80;40.20;;;;;;688645;28;886;-83
2022/05/03 00:04:56;;;;;;;;;;;22.80;40.20;;;;;;688688;28;879;-83
2022/05/03 00:05:38;;;;;;;;;;;22.80;40.20;;;;;;688579;28;1417;-79
2022/05/03 00:05:59;;;;;;;;;;;22.80;40.20;;;;;;688787;28;879;-85
2022/05/03 00:06:28;;;;;;;;;;;22.80;40.40;;;;;;688862;28;1567;-82
2022/05/03 00:07:07;;;;;;;;;;;22.80;40.50;;;;;;688763;28;1294;-84
2022/05/03 00:07:30;;;;;;;;;;;22.80;40.50;;;;;;688782;28;889;-85
2022/05/03 00:07:59;;;;;;;;;;;22.80;40.40;;;;;;688750;28;883;-84
2022/05/03 00:08:24;;;;;;;;;;;22.80;40.40;;;;;;688685;28;1117;-80
2022/05/03 00:08:47;;;;;;;;;;;22.80;40.40;;;;;;688802;28;898;-82
2022/05/03 00:09:08;;;;;;;;;;;22.80;40.30;;;;;;688832;28;886;-81
2022/05/03 00:09:34;;;;;;;;;;;22.80;40.40;;;;;;688701;28;810;-80
2022/05/03 00:10:08;;;;;;;;;;;22.80;40.40;;;;;;688844;28;518;-82
2022/05/03 00:10:35;;;;;;;;;;;22.80;40.70;;;;;;688717;28;843;-79
2022/05/03 00:11:11;;;;;;;;;;;22.80;40.40;;;;;;688680;28;818;-82
2022/05/03 00:11:33;;;;;;;;;;;22.80;41.40;;;;;;688774;28;897;-80
2022/05/03 00:12:04;;;;;;;;;;;22.80;40.70;;;;;;688693;28;792;-81
2022/05/03 00:12:30;;;;;;;;;;;22.80;40.50;;;;;;688688;28;783;-84
2022/05/03 00:13:00;;;;;;;;;;;22.80;40.50;;;;;;688780;28;873;-80
2022/05/03 00:13:25;;;;;;;;;;;22.80;40.50;;;;;;688780;28;865;-81
2022/05/03 00:14:09;;;;;;;;;;;22.80;40.70;;;;;;688764;28;782;-80
2022/05/03 00:14:37;;;;;;;;;;;22.80;40.60;;;;;;688653;28;986;-83
2022/05/03 00:14:59;;;;;;;;;;;22.80;40.80;;;;;;688697;28;875;-83
2022/05/03 00:15:20;;;;;;;;;;;22.80;40.60;;;;;;688779;28;699;-83
2022/05/03 00:15:43;;;;;;;;;;;22.80;40.50;;;;;;688835;28;862;-80
2022/05/03 00:16:04;;;;;;;;;;;22.80;40.80;;;;;;688821;28;798;-81
2022/05/03 00:16:26;;;;;;;;;;;22.80;40.90;;;;;;688753;28;790;-85
2022/05/03 00:16:48;;;;;;;;;;;22.80;40.80;;;;;;688830;28;878;-79
2022/05/03 00:17:10;;;;;;;;;;;22.80;40.60;;;;;;688664;28;877;-81
2022/05/03 00:17:32;;;;;;;;;;;22.80;40.80;;;;;;688656;28;818;-81
2022/05/03 00:17:53;;;;;;;;;;;22.80;40.90;;;;;;688755;28;957;-81
2022/05/03 00:18:14;;;;;;;;;;;22.80;41.00;;;;;;688760;28;842;-81
2022/05/03 00:18:35;;;;;;;;;;;22.80;40.90;;;;;;688865;28;846;-81
2022/05/03 00:18:56;;;;;;;;;;;22.80;40.90;;;;;;688710;28;518;-83
2022/05/03 00:19:16;;;;;;;;;;;22.80;40.90;;;;;;688704;28;941;-81
2022/05/03 00:19:37;;;;;;;;;;;22.80;42.00;;;;;;688797;28;941;-80
2022/05/03 00:19:58;;;;;;;;;;;22.80;40.80;;;;;;688808;28;894;-80
2022/05/03 00:20:20;;;;;;;;;;;22.80;40.90;;;;;;688751;28;925;-82
2022/05/03 00:20:40;;;;;;;;;;;22.80;41.00;;;;;;688829;28;909;-79
2022/05/03 00:21:01;;;;;;;;;;;22.80;41.00;;;;;;688809;28;1016;-83
2022/05/03 00:21:23;;;;;;;;;;;22.80;40.90;;;;;;688593;28;811;-80
2022/05/03 00:21:44;;;;;;;;;;;22.80;40.80;;;;;;688665;28;839;-81
2022/05/03 00:22:07;;;;;;;;;;;22.80;40.90;;;;;;688928;28;835;-81
2022/05/03 00:22:28;;;;;;;;;;;22.80;40.90;;;;;;688725;28;807;-81
2022/05/03 00:22:49;;;;;;;;;;;22.80;40.80;;;;;;688633;28;862;-80
2022/05/03 00:23:09;;;;;;;;;;;22.80;40.80;;;;;;688726;28;929;-81
2022/05/03 00:23:31;;;;;;;;;;;22.80;41.00;;;;;;688668;28;990;-79
2022/05/03 00:23:51;;;;;;;;;;;22.80;41.10;;;;;;688725;28;810;-79
2022/05/03 00:24:12;;;;;;;;;;;22.80;41.00;;;;;;688781;28;858;-79
2022/05/03 00:24:33;;;;;;;;;;;22.80;41.10;;;;;;688684;28;791;-79
2022/05/03 00:24:54;;;;;;;;;;;22.80;41.00;;;;;;688760;28;921;-79
2022/05/03 00:25:15;;;;;;;;;;;22.80;41.10;;;;;;688645;28;1112;-79
2022/05/03 00:25:36;;;;;;;;;;;22.80;41.00;;;;;;688763;28;798;-79
2022/05/03 00:25:57;;;;;;;;;;;22.80;40.90;;;;;;688816;28;811;-79
2022/05/03 00:26:18;;;;;;;;;;;22.80;41.00;;;;;;688716;28;791;-79
2022/05/03 00:26:38;;;;;;;;;;;22.80;40.90;;;;;;688737;28;882;-79
2022/05/03 00:26:59;;;;;;;;;;;22.80;41.00;;;;;;688704;28;806;-79
2022/05/03 00:27:20;;;;;;;;;;;22.80;41.20;;;;;;688653;28;763;-79
2022/05/03 00:27:41;;;;;;;;;;;22.80;41.00;;;;;;688657;28;1099;-79
2022/05/03 00:28:02;;;;;;;;;;;22.80;41.10;;;;;;688617;28;815;-78
2022/05/03 00:28:23;;;;;;;;;;;22.80;41.10;;;;;;688729;28;807;-79
2022/05/03 00:28:44;;;;;;;;;;;22.80;41.00;;;;;;688781;28;827;-78
2022/05/03 00:29:06;;;;;;;;;;;22.80;40.90;;;;;;688688;28;802;-79
2022/05/03 00:29:29;;;;;;;;;;;22.80;40.80;;;;;;688725;28;850;-79
2022/05/03 00:29:51;;;;;;;;;;;22.80;40.90;;;;;;688486;28;1114;-78
2022/05/03 00:30:11;;;;;;;;;;;22.80;40.80;;;;;;688862;28;799;-78
2022/05/03 00:30:33;;;;;;;;;;;22.80;40.80;;;;;;688690;28;794;-79
2022/05/03 00:30:55;;;;;;;;;;;22.80;40.90;;;;;;688718;28;810;-79
2022/05/03 00:31:15;;;;;;;;;;;22.80;40.90;;;;;;688804;28;818;-79
2022/05/03 00:31:36;;;;;;;;;;;22.80;41.00;;;;;;688761;28;830;-78
2022/05/03 00:31:57;;;;;;;;;;;22.80;41.10;;;;;;688485;28;1070;-79
2022/05/03 00:32:19;;;;;;;;;;;22.80;41.10;;;;;;688421;28;1902;-78
2022/05/03 00:32:40;;;;;;;;;;;22.80;41.00;;;;;;688904;28;803;-79
2022/05/03 00:33:02;;;;;;;;;;;22.80;41.00;;;;;;688669;28;878;-79
2022/05/03 00:33:22;;;;;;;;;;;22.80;41.00;;;;;;688742;28;898;-79
2022/05/03 00:33:43;;;;;;;;;;;22.80;41.00;;;;;;688645;28;909;-79
2022/05/03 00:34:05;;;;;;;;;;;22.80;41.00;;;;;;698313;28;1107;-79
2022/05/03 00:34:26;;;;;;;;;;;22.80;41.00;;;;;;702817;28;838;-80
2022/05/03 00:34:47;;;;;;;;;;;22.80;41.00;;;;;;702616;28;868;-79
2022/05/03 00:35:09;;;;;;;;;;;22.80;41.00;;;;;;702803;28;861;-79
2022/05/03 00:35:29;;;;;;;;;;;22.80;41.10;;;;;;698965;28;1373;-78
2022/05/03 00:35:50;;;;;;;;;;;22.80;41.10;;;;;;699665;28;889;-79
2022/05/03 00:36:11;;;;;;;;;;;22.80;41.00;;;;;;699626;28;1257;-79
2022/05/03 00:36:31;;;;;;;;;;;22.80;41.10;;;;;;699644;28;798;-79
2022/05/03 00:36:53;;;;;;;;;;;22.80;41.00;;;;;;699682;28;802;-79
2022/05/03 00:37:14;;;;;;;;;;;22.80;41.10;;;;;;699692;28;826;-81
2022/05/03 00:37:34;;;;;;;;;;;22.70;41.10;;;;;;699783;28;866;-79
2022/05/03 00:37:55;;;;;;;;;;;22.80;41.10;;;;;;700114;28;963;-79
2022/05/03 00:38:15;;;;;;;;;;;22.70;41.00;;;;;;702608;28;954;-78
2022/05/03 00:38:36;;;;;;;;;;;22.70;41.00;;;;;;702787;28;849;-79
2022/05/03 00:38:57;;;;;;;;;;;22.80;41.00;;;;;;702718;28;806;-79
2022/05/03 00:39:18;;;;;;;;;;;22.80;41.10;;;;;;702626;28;799;-79
2022/05/03 00:39:38;;;;;;;;;;;22.70;40.90;;;;;;702810;28;817;-78
2022/05/03 00:39:59;;;;;;;;;;;22.80;41.10;;;;;;702574;28;791;-78
2022/05/03 00:40:20;;;;;;;;;;;22.80;41.10;;;;;;702580;28;798;-79
2022/05/03 00:40:47;;;;;;;;;;;22.80;41.10;;;;;;702736;28;897;-79
2022/05/03 00:41:08;;;;;;;;;;;22.80;41.10;;;;;;702709;28;1429;-80
2022/05/03 00:41:34;;;;;;;;;;;22.80;41.10;;;;;;702659;28;860;-79
2022/05/03 00:41:57;;;;;;;;;;;22.80;41.20;;;;;;702561;28;926;-80
2022/05/03 00:42:20;;;;;;;;;;;22.80;41.30;;;;;;702665;28;842;-79
2022/05/03 00:42:47;;;;;;;;;;;22.70;41.30;;;;;;702731;28;809;-79
2022/05/03 00:43:32;;;;;;;;;;;22.70;41.40;;;;;;702715;28;928;-78
2022/05/03 00:44:55;;;;;;;;;;;22.80;41.50;;;;;;702455;28;1164;-79
2022/05/03 00:45:00;;;;;;;;;;;22.70;41.50;;;;;;699586;28;948;-79
2022/05/03 00:45:33;;;;;;;;;;;22.70;41.60;;;;;;699630;28;929;-78
2022/05/03 00:46:00;;;;;;;;;;;22.80;41.80;;;;;;699638;28;877;-79
2022/05/03 00:46:23;;;;;;;;;;;22.70;42.00;;;;;;701225;28;913;-79
2022/05/03 00:46:43;;;;;;;;;;;22.70;41.60;;;;;;702588;28;902;-78
2022/05/03 00:47:07;;;;;;;;;;;22.70;41.50;;;;;;702782;28;1084;-79
2022/05/03 00:47:46;;;;;;;;;;;22.70;41.50;;;;;;702742;28;790;-79
2022/05/03 00:48:13;;;;;;;;;;;22.70;41.60;;;;;;702749;28;901;-80
2022/05/03 00:48:52;;;;;;;;;;;22.70;41.30;;;;;;702897;28;786;-80
2022/05/03 00:49:25;;;;;;;;;;;22.70;41.50;;;;;;702681;28;862;-79
2022/05/03 00:49:52;;;;;;;;;;;22.70;41.50;;;;;;702650;28;850;-79
2022/05/03 00:50:13;;;;;;;;;;;22.70;42.00;;;;;;702691;28;806;-79
2022/05/03 00:50:37;;;;;;;;;;;22.80;41.80;;;;;;699644;28;1360;-79
2022/05/03 00:51:10;;;;;;;;;;;22.70;41.80;;;;;;699603;28;775;-78
2022/05/03 00:51:30;;;;;;;;;;;22.70;42.00;;;;;;699703;28;814;-79
2022/05/03 00:51:52;;;;;;;;;;;22.70;41.80;;;;;;699645;28;922;-79
2022/05/03 00:52:19;;;;;;;;;;;22.70;41.90;;;;;;699649;28;1906;-79
2022/05/03 00:53:01;;;;;;;;;;;22.70;42.00;;;;;;702785;28;921;-79
2022/05/03 00:53:34;;;;;;;;;;;22.80;42.00;;;;;;702900;28;865;-79
2022/05/03 00:54:04;;;;;;;;;;;22.70;42.10;;;;;;703236;28;1328;-78
2022/05/03 00:54:32;;;;;;;;;;;22.70;42.10;;;;;;703828;28;845;-79
2022/05/03 00:54:52;;;;;;;;;;;22.70;42.00;;;;;;704126;28;877;-78
2022/05/03 00:55:19;;;;;;;;;;;22.80;42.00;;;;;;703477;28;814;-80
2022/05/03 00:55:59;;;;;;;;;;;22.80;42.00;;;;;;703931;28;834;-77
2022/05/03 00:56:20;;;;;;;;;;;22.70;41.90;;;;;;702499;28;913;-80
2022/05/03 00:57:08;;;;;;;;;;;22.80;42.00;;;;;;702717;28;865;-80
2022/05/03 00:57:37;;;;;;;;;;;22.80;42.00;;;;;;702562;28;1329;-80
2022/05/03 00:57:57;;;;;;;;;;;22.80;41.90;;;;;;702641;28;960;-82
2022/05/03 00:58:20;;;;;;;;;;;22.80;41.90;;;;;;702755;28;861;-84
2022/05/03 00:58:56;;;;;;;;;;;22.80;41.90;;;;;;702722;28;885;-79
2022/05/03 00:59:40;;;;;;;;;;;22.80;41.80;;;;;;702502;28;786;-81
2022/05/03 01:00:08;;;;;;;;;;;22.80;41.90;;;;;;702616;28;841;-84
2022/05/03 01:00:30;;;;;;;;;;;22.80;41.80;;;;;;702593;28;925;-82
2022/05/03 01:01:21;;;;;;;;;;;22.80;41.80;;;;;;702553;28;926;-81
2022/05/03 01:01:44;;;;;;;;;;;22.80;41.80;;;;;;688693;28;854;-79
2022/05/03 01:02:05;;;;;;;;;;;22.80;41.80;;;;;;688726;28;1061;-81
2022/05/03 01:02:36;;;;;;;;;;;22.80;41.80;;;;;;688662;28;850;-83
2022/05/03 01:03:09;;;;;;;;;;;22.80;41.70;;;;;;688638;28;878;-82
2022/05/03 01:03:32;;;;;;;;;;;22.80;41.70;;;;;;688560;28;960;-82
2022/05/03 01:04:03;;;;;;;;;;;22.80;41.70;;;;;;688614;28;861;-80
2022/05/03 01:04:42;;;;;;;;;;;22.80;41.60;;;;;;688494;28;1377;-83
2022/05/03 01:05:03;;;;;;;;;;;22.80;41.60;;;;;;688630;28;854;-79
2022/05/03 01:05:26;;;;;;;;;;;22.80;41.60;;;;;;688707;28;834;-83
2022/05/03 01:06:01;;;;;;;;;;;22.80;41.60;;;;;;688605;28;794;-81
2022/05/03 01:06:22;;;;;;;;;;;22.80;41.60;;;;;;688622;28;882;-79
2022/05/03 01:06:53;;;;;;;;;;;22.80;41.60;;;;;;688901;28;1034;-83
2022/05/03 01:07:28;;;;;;;;;;;22.80;41.60;;;;;;688613;28;792;-81
2022/05/03 01:08:08;;;;;;;;;;;22.80;41.60;;;;;;688483;28;870;-81
2022/05/03 01:08:29;;;;;;;;;;;22.80;41.60;;;;;;688579;28;892;-80
2022/05/03 01:09:02;;;;;;;;;;;22.80;41.60;;;;;;688623;28;821;-79
2022/05/03 01:09:31;;;;;;;;;;;22.80;41.50;;;;;;688568;28;869;-79
2022/05/03 01:10:30;;;;;;;;;;;22.80;41.50;;;;;;688593;28;938;-80
2022/05/03 01:11:15;;;;;;;;;;;22.80;41.60;;;;;;688546;28;1291;-83
2022/05/03 01:11:38;;;;;;;;;;;22.80;41.50;;;;;;688660;28;807;-79
2022/05/03 01:11:59;;;;;;;;;;;22.80;41.50;;;;;;688456;28;914;-78
2022/05/03 01:12:39;;;;;;;;;;;22.80;41.50;;;;;;688581;28;1966;-80
2022/05/03 01:13:00;;;;;;;;;;;22.80;41.50;;;;;;683260;29;1127;-81
2022/05/03 01:13:33;;;;;;;;;;;22.80;41.50;;;;;;683151;29;957;-81
2022/05/03 01:14:03;;;;;;;;;;;22.90;41.50;;;;;;683020;28;1487;-80
2022/05/03 01:14:29;;;;;;;;;;;22.80;41.50;;;;;;683114;29;928;-80
2022/05/03 01:14:50;;;;;;;;;;;22.80;41.50;;;;;;683231;29;827;-79
2022/05/03 01:15:23;;;;;;;;;;;22.80;41.50;;;;;;683253;29;870;-80
2022/05/03 01:15:47;;;;;;;;;;;22.80;41.50;;;;;;683199;29;1101;-81
2022/05/03 01:16:16;;;;;;;;;;;22.80;41.50;;;;;;683302;29;779;-81
2022/05/03 01:16:55;;;;;;;;;;;22.80;41.60;;;;;;683387;29;787;-83
2022/05/03 01:17:27;;;;;;;;;;;22.80;41.60;;;;;;683324;29;842;-79
2022/05/03 01:17:53;;;;;;;;;;;22.80;41.60;;;;;;683290;29;799;-81
2022/05/03 01:18:17;;;;;;;;;;;22.80;41.60;;;;;;683282;29;807;-85
2022/05/03 01:18:43;;;;;;;;;;;22.80;41.60;;;;;;683352;29;870;-79
2022/05/03 01:19:23;;;;;;;;;;;22.80;42.70;;;;;;683276;29;933;-82
2022/05/03 01:19:50;;;;;;;;;;;22.80;41.70;;;;;;675199;29;1187;-80
2022/05/03 01:20:14;;;;;;;;;;;22.80;41.70;;;;;;675377;29;855;-80
2022/05/03 01:20:34;;;;;;;;;;;22.80;41.80;;;;;;675377;29;831;-79
2022/05/03 01:21:00;;;;;;;;;;;22.80;41.80;;;;;;675292;29;1045;-81
2022/05/03 01:21:39;;;;;;;;;;;22.80;41.80;;;;;;675354;29;859;-83
2022/05/03 01:22:28;;;;;;;;;;;22.80;41.80;;;;;;675379;29;792;-81
2022/05/03 01:23:07;;;;;;;;;;;22.80;41.70;;;;;;672596;29;867;-79
2022/05/03 01:23:50;;;;;;;;;;;22.90;41.80;;;;;;672739;29;1194;-82
2022/05/03 01:24:28;;;;;;;;;;;22.80;41.80;;;;;;672896;29;820;-81
2022/05/03 01:25:15;;;;;;;;;;;22.90;41.70;;;;;;675187;29;907;-80
2022/05/03 01:25:56;;;;;;;;;;;22.80;41.70;;;;;;670268;29;1103;-82
2022/05/03 01:26:35;;;;;;;;;;;22.80;41.80;;;;;;660055;30;1104;-79
2022/05/03 01:27:13;;;;;;;;;;;22.80;41.60;;;;;;660127;30;853;-83
2022/05/03 01:27:42;;;;;;;;;;;22.90;41.70;;;;;;660264;30;887;-80
2022/05/03 01:28:06;;;;;;;;;;;22.80;41.80;;;;;;660236;30;1487;-82
2022/05/03 01:28:45;;;;;;;;;;;22.80;41.70;;;;;;660179;30;1018;-80
2022/05/03 01:29:18;;;;;;;;;;;22.80;41.70;;;;;;660228;30;957;-80
2022/05/03 01:29:40;;;;;;;;;;;22.80;41.80;;;;;;660087;30;1161;-81
2022/05/03 01:30:01;;;;;;;;;;;22.80;41.80;;;;;;660148;30;881;-82
2022/05/03 01:30:22;;;;;;;;;;;22.80;41.80;;;;;;660032;29;1410;-80
2022/05/03 01:30:48;;;;;;;;;;;22.80;41.80;;;;;;660168;30;762;-82
2022/05/03 01:31:12;;;;;;;;;;;22.80;41.80;;;;;;660460;30;1036;-80
2022/05/03 01:31:34;;;;;;;;;;;22.80;41.70;;;;;;660240;30;865;-83
2022/05/03 01:32:00;;;;;;;;;;;22.80;41.70;;;;;;659973;30;1076;-82
2022/05/03 01:32:21;;;;;;;;;;;22.80;41.80;;;;;;659912;30;1907;-81
2022/05/03 01:32:43;;;;;;;;;;;22.80;41.70;;;;;;660219;30;1136;-81
2022/05/03 01:33:07;;;;;;;;;;;22.80;41.70;;;;;;660165;30;849;-80
2022/05/03 01:33:32;;;;;;;;;;;22.80;41.70;;;;;;660153;30;833;-80
2022/05/03 01:33:57;;;;;;;;;;;22.80;41.80;;;;;;660169;30;891;-79
2022/05/03 01:34:19;;;;;;;;;;;22.80;41.80;;;;;;660132;30;900;-80
2022/05/03 01:34:40;;;;;;;;;;;22.80;41.70;;;;;;660167;30;1336;-82
2022/05/03 01:35:01;;;;;;;;;;;22.80;41.80;;;;;;660082;30;852;-80
2022/05/03 01:35:22;;;;;;;;;;;22.80;41.80;;;;;;660133;30;840;-82
2022/05/03 01:35:45;;;;;;;;;;;22.80;41.80;;;;;;660164;30;840;-85
2022/05/03 01:36:09;;;;;;;;;;;22.80;41.80;;;;;;660252;30;984;-78
2022/05/03 01:36:49;;;;;;;;;;;22.80;41.80;;;;;;660134;30;829;-81
2022/05/03 01:37:28;;;;;;;;;;;22.80;41.80;;;;;;660181;30;951;-83
2022/05/03 01:37:54;;;;;;;;;;;22.80;41.90;;;;;;660126;30;1071;-80
2022/05/03 01:38:30;;;;;;;;;;;22.80;41.80;;;;;;660111;30;1104;-79
2022/05/03 01:39:03;;;;;;;;;;;22.80;41.80;;;;;;660117;30;896;-81
2022/05/03 01:39:32;;;;;;;;;;;22.80;41.80;;;;;;662633;29;805;-79
2022/05/03 01:39:52;;;;;;;;;;;22.80;42.00;;;;;;662611;29;896;-83
2022/05/03 01:40:23;;;;;;;;;;;22.80;41.90;;;;;;662607;29;825;-79
2022/05/03 01:40:43;;;;;;;;;;;22.80;41.90;;;;;;662555;29;1477;-81
2022/05/03 01:41:04;;;;;;;;;;;22.80;41.90;;;;;;662784;29;919;-82
2022/05/03 01:41:24;;;;;;;;;;;22.80;41.80;;;;;;662606;29;821;-79
2022/05/03 01:41:45;;;;;;;;;;;22.80;41.90;;;;;;662618;29;864;-80
2022/05/03 01:42:23;;;;;;;;;;;22.80;42.00;;;;;;662714;29;896;-79
2022/05/03 01:42:49;;;;;;;;;;;22.80;42.00;;;;;;662548;29;1158;-80
2022/05/03 01:43:15;;;;;;;;;;;22.80;41.90;;;;;;662723;29;939;-82
2022/05/03 01:43:54;;;;;;;;;;;22.80;41.90;;;;;;662711;29;898;-78
2022/05/03 01:44:33;;;;;;;;;;;22.80;41.90;;;;;;662465;29;1146;-79
2022/05/03 01:45:02;;;;;;;;;;;22.80;42.00;;;;;;662449;29;1200;-80
2022/05/03 01:45:25;;;;;;;;;;;22.80;42.10;;;;;;662522;29;882;-84
2022/05/03 01:46:04;;;;;;;;;;;22.80;42.00;;;;;;662573;29;821;-83
2022/05/03 01:46:28;;;;;;;;;;;22.80;42.00;;;;;;662553;29;886;-80
2022/05/03 01:46:52;;;;;;;;;;;22.80;42.10;;;;;;662553;29;837;-81
2022/05/03 01:47:13;;;;;;;;;;;22.80;42.00;;;;;;662702;29;932;-81
2022/05/03 01:47:52;;;;;;;;;;;22.80;42.00;;;;;;662656;29;923;-78
2022/05/03 01:48:17;;;;;;;;;;;22.80;42.10;;;;;;662618;29;889;-82
2022/05/03 01:50:19;;;;;;;;;;;22.80;41.90;;;;;;662591;29;620;-80
2022/05/03 01:50:51;;;;;;;;;;;22.80;42.10;;;;;;662607;29;1035;-81
2022/05/03 01:51:22;;;;;;;;;;;22.70;42.00;;;;;;662853;29;1255;-80
2022/05/03 01:51:46;;;;;;;;;;;22.80;42.00;;;;;;667582;29;950;-80
2022/05/03 01:52:14;;;;;;;;;;;22.80;42.20;;;;;;667599;29;875;-79
2022/05/03 01:52:53;;;;;;;;;;;22.80;42.20;;;;;;667802;29;579;-79
2022/05/03 01:53:18;;;;;;;;;;;22.80;42.30;;;;;;670068;29;863;-81
2022/05/03 01:53:53;;;;;;;;;;;22.80;42.30;;;;;;670228;29;834;-78
2022/05/03 01:54:19;;;;;;;;;;;22.70;42.20;;;;;;670114;29;852;-80
2022/05/03 01:54:57;;;;;;;;;;;22.80;42.30;;;;;;670208;29;870;-78
2022/05/03 01:55:27;;;;;;;;;;;22.70;42.40;;;;;;670031;29;918;-80
2022/05/03 01:56:06;;;;;;;;;;;22.70;42.30;;;;;;670105;29;861;-78
2022/05/03 01:56:35;;;;;;;;;;;22.70;42.30;;;;;;670059;29;842;-79
2022/05/03 01:56:58;;;;;;;;;;;22.80;42.40;;;;;;670121;29;1106;-79
2022/05/03 01:57:37;;;;;;;;;;;22.70;42.30;;;;;;670126;29;805;-79
2022/05/03 01:58:29;;;;;;;;;;;22.70;42.50;;;;;;674457;29;1119;-81
2022/05/03 01:59:03;;;;;;;;;;;22.70;42.30;;;;;;675249;29;868;-79
2022/05/03 01:59:44;;;;;;;;;;;22.70;42.40;;;;;;675159;29;865;-79
2022/05/03 02:00:06;;;;;;;;;;;22.80;42.50;;;;;;674707;29;1818;-79
2022/05/03 02:00:27;;;;;;;;;;;22.70;42.50;;;;;;675268;29;944;-81
2022/05/03 02:00:58;;;;;;;;;;;22.80;42.40;;;;;;675270;29;812;-79
2022/05/03 02:01:37;;;;;;;;;;;22.70;42.40;;;;;;675206;29;946;-79
2022/05/03 02:02:24;;;;;;;;;;;22.80;42.40;;;;;;675096;29;1081;-80
2022/05/03 02:02:54;;;;;;;;;;;22.80;42.40;;;;;;671587;29;1908;-78
2022/05/03 02:03:29;;;;;;;;;;;22.80;42.50;;;;;;675133;29;997;-79
2022/05/03 02:04:06;;;;;;;;;;;22.70;42.40;;;;;;683101;29;910;-80
2022/05/03 02:04:45;;;;;;;;;;;22.70;42.40;;;;;;685428;28;1046;-80
2022/05/03 02:05:07;;;;;;;;;;;22.70;42.50;;;;;;691293;28;923;-79
2022/05/03 02:05:36;;;;;;;;;;;22.70;42.50;;;;;;691109;28;870;-80
2022/05/03 02:05:56;;;;;;;;;;;22.70;42.50;;;;;;691131;28;811;-79
2022/05/03 02:06:40;;;;;;;;;;;22.80;42.50;;;;;;691197;28;976;-80
2022/05/03 02:07:21;;;;;;;;;;;22.70;42.50;;;;;;691146;28;823;-81
2022/05/03 02:08:07;;;;;;;;;;;22.70;42.50;;;;;;688474;28;1321;-79
2022/05/03 02:08:31;;;;;;;;;;;22.70;42.60;;;;;;683414;28;1350;-79
2022/05/03 02:09:04;;;;;;;;;;;22.70;42.60;;;;;;685728;28;977;-80
2022/05/03 02:09:28;;;;;;;;;;;22.70;42.60;;;;;;685715;28;926;-79
2022/05/03 02:10:04;;;;;;;;;;;22.70;42.30;;;;;;685722;28;1045;-81
2022/05/03 02:10:25;;;;;;;;;;;22.70;42.50;;;;;;687746;28;1020;-79
2022/05/03 02:10:58;;;;;;;;;;;22.70;42.60;;;;;;688362;28;811;-79
2022/05/03 02:11:37;;;;;;;;;;;22.70;42.50;;;;;;688377;28;934;-79
2022/05/03 02:12:00;;;;;;;;;;;22.70;42.40;;;;;;688372;28;815;-79
2022/05/03 02:12:21;;;;;;;;;;;22.70;42.60;;;;;;688268;28;1965;-79
2022/05/03 02:12:44;;;;;;;;;;;22.70;42.60;;;;;;688376;28;870;-79
2022/05/03 02:13:15;;;;;;;;;;;22.70;42.60;;;;;;688439;28;883;-79
2022/05/03 02:14:44;;;;;;;;;;;22.70;42.60;;;;;;688370;28;1180;-79
2022/05/03 02:14:45;;;;;;;;;;;22.70;42.60;;;;;;688411;28;857;-78
2022/05/03 02:15:06;;;;;;;;;;;22.70;42.60;;;;;;688513;28;815;-80
2022/05/03 02:15:48;;;;;;;;;;;22.70;42.70;;;;;;688379;28;773;-79
2022/05/03 02:16:09;;;;;;;;;;;22.70;42.70;;;;;;688245;28;1138;-80
2022/05/03 02:16:37;;;;;;;;;;;22.70;42.70;;;;;;688027;28;870;-80
2022/05/03 02:16:58;;;;;;;;;;;22.70;42.70;;;;;;688309;28;921;-79
2022/05/03 02:17:37;;;;;;;;;;;22.70;43.60;;;;;;688394;28;850;-82
2022/05/03 02:17:58;;;;;;;;;;;22.70;42.50;;;;;;688360;28;814;-80
2022/05/03 02:18:25;;;;;;;;;;;22.70;42.50;;;;;;688337;28;1183;-82
2022/05/03 02:18:54;;;;;;;;;;;22.70;42.60;;;;;;688456;28;827;-81
2022/05/03 02:19:24;;;;;;;;;;;22.70;42.70;;;;;;688411;28;834;-81
2022/05/03 02:19:47;;;;;;;;;;;22.70;42.70;;;;;;688395;28;882;-81
2022/05/03 02:20:08;;;;;;;;;;;22.70;42.70;;;;;;688429;28;982;-77
2022/05/03 02:20:46;;;;;;;;;;;22.70;42.80;;;;;;688402;28;878;-84
2022/05/03 02:21:17;;;;;;;;;;;22.70;42.80;;;;;;688464;28;838;-81
2022/05/03 02:21:45;;;;;;;;;;;22.70;42.80;;;;;;688431;28;877;-82
2022/05/03 02:22:15;;;;;;;;;;;22.70;42.80;;;;;;688576;28;791;-84
2022/05/03 02:22:38;;;;;;;;;;;22.70;42.80;;;;;;688425;28;1139;-85
2022/05/03 02:22:59;;;;;;;;;;;22.70;42.80;;;;;;688450;28;810;-81
2022/05/03 02:23:25;;;;;;;;;;;22.70;42.80;;;;;;688378;28;799;-80
2022/05/03 02:23:59;;;;;;;;;;;22.70;42.80;;;;;;688436;28;811;-80
2022/05/03 02:24:27;;;;;;;;;;;22.70;42.70;;;;;;688411;28;819;-78
2022/05/03 02:24:47;;;;;;;;;;;22.70;42.70;;;;;;688433;28;869;-82
2022/05/03 02:25:08;;;;;;;;;;;22.70;42.70;;;;;;688351;28;1358;-79
2022/05/03 02:25:29;;;;;;;;;;;22.70;42.70;;;;;;688387;28;834;-79
2022/05/03 02:26:16;;;;;;;;;;;22.70;42.70;;;;;;688340;28;838;-79
2022/05/03 02:26:37;;;;;;;;;;;22.70;42.70;;;;;;682961;29;1222;-81
2022/05/03 02:27:04;;;;;;;;;;;22.70;42.70;;;;;;683060;29;855;-83
2022/05/03 02:27:26;;;;;;;;;;;22.70;42.70;;;;;;686442;28;1923;-80
2022/05/03 02:27:48;;;;;;;;;;;22.70;42.70;;;;;;688374;28;865;-81
2022/05/03 02:28:19;;;;;;;;;;;22.70;42.70;;;;;;688486;28;795;-82
2022/05/03 02:28:45;;;;;;;;;;;22.70;42.60;;;;;;688375;28;803;-80
2022/05/03 02:29:14;;;;;;;;;;;22.80;42.70;;;;;;688497;28;1096;-78
2022/05/03 02:29:44;;;;;;;;;;;22.70;42.70;;;;;;688323;28;942;-79
2022/05/03 02:30:06;;;;;;;;;;;22.80;42.70;;;;;;688494;28;990;-82
2022/05/03 02:30:27;;;;;;;;;;;22.70;42.60;;;;;;688403;28;966;-79
2022/05/03 02:30:49;;;;;;;;;;;22.70;42.60;;;;;;688494;28;882;-80
2022/05/03 02:31:14;;;;;;;;;;;22.80;42.60;;;;;;688440;28;1308;-81
2022/05/03 02:31:48;;;;;;;;;;;22.70;42.60;;;;;;688444;28;795;-79
2022/05/03 02:32:10;;;;;;;;;;;22.80;42.70;;;;;;688290;28;1157;-81
2022/05/03 02:32:34;;;;;;;;;;;22.80;42.60;;;;;;688389;28;906;-78
2022/05/03 02:33:00;;;;;;;;;;;22.70;42.50;;;;;;688175;28;1025;-81
2022/05/03 02:33:27;;;;;;;;;;;22.80;42.50;;;;;;688447;28;835;-80
2022/05/03 02:33:54;;;;;;;;;;;22.80;42.60;;;;;;687996;28;865;-77
2022/05/03 02:34:15;;;;;;;;;;;22.80;42.60;;;;;;688375;28;937;-84
2022/05/03 02:34:42;;;;;;;;;;;22.80;42.60;;;;;;688454;28;874;-79
2022/05/03 02:35:05;;;;;;;;;;;22.80;42.50;;;;;;688309;28;875;-79
2022/05/03 02:35:30;;;;;;;;;;;22.80;42.50;;;;;;689623;28;1216;-77
2022/05/03 02:35:54;;;;;;;;;;;22.80;42.60;;;;;;699163;28;802;-80
2022/05/03 02:36:22;;;;;;;;;;;22.80;42.60;;;;;;699204;28;871;-82
2022/05/03 02:36:51;;;;;;;;;;;22.80;42.50;;;;;;699314;28;933;-82
2022/05/03 02:37:15;;;;;;;;;;;22.80;42.50;;;;;;699389;28;962;-81
2022/05/03 02:37:43;;;;;;;;;;;22.80;42.50;;;;;;699319;28;770;-81
2022/05/03 02:38:05;;;;;;;;;;;22.80;42.50;;;;;;699428;28;1008;-78
2022/05/03 02:38:41;;;;;;;;;;;22.80;42.50;;;;;;699307;28;889;-79
2022/05/03 02:39:05;;;;;;;;;;;22.80;42.50;;;;;;699398;28;806;-80
2022/05/03 02:39:28;;;;;;;;;;;22.80;42.50;;;;;;699368;28;1098;-83
2022/05/03 02:39:52;;;;;;;;;;;22.80;42.50;;;;;;699260;28;851;-78
2022/05/03 02:40:15;;;;;;;;;;;22.80;42.50;;;;;;699489;28;845;-80
2022/05/03 02:40:39;;;;;;;;;;;22.80;42.40;;;;;;699340;28;790;-78
2022/05/03 02:41:02;;;;;;;;;;;22.80;42.50;;;;;;699442;28;873;-78
2022/05/03 02:41:24;;;;;;;;;;;22.80;42.50;;;;;;699424;28;806;-79
2022/05/03 02:41:47;;;;;;;;;;;22.80;42.40;;;;;;699342;28;814;-82
2022/05/03 02:42:08;;;;;;;;;;;22.80;42.50;;;;;;699364;28;849;-81
2022/05/03 02:42:28;;;;;;;;;;;22.80;42.40;;;;;;699335;28;881;-78
2022/05/03 02:42:50;;;;;;;;;;;22.80;42.50;;;;;;699253;28;786;-81
2022/05/03 02:43:12;;;;;;;;;;;22.80;42.40;;;;;;699813;28;882;-78
2022/05/03 02:43:34;;;;;;;;;;;22.80;42.50;;;;;;700611;28;912;-79
2022/05/03 02:43:55;;;;;;;;;;;22.80;42.60;;;;;;700422;28;802;-77
2022/05/03 02:44:19;;;;;;;;;;;22.80;42.50;;;;;;700225;28;929;-80
2022/05/03 02:44:40;;;;;;;;;;;22.80;42.60;;;;;;700934;28;1051;-78
2022/05/03 02:45:02;;;;;;;;;;;22.80;42.50;;;;;;700812;28;819;-78
2022/05/03 02:45:23;;;;;;;;;;;22.80;42.50;;;;;;700445;28;982;-79
2022/05/03 02:45:50;;;;;;;;;;;22.80;42.50;;;;;;701010;28;1104;-80
2022/05/03 02:46:10;;;;;;;;;;;22.80;42.50;;;;;;704109;28;909;-81
2022/05/03 02:46:49;;;;;;;;;;;22.80;42.50;;;;;;704111;28;972;-81
2022/05/03 02:47:19;;;;;;;;;;;22.80;42.50;;;;;;704165;28;1015;-79
2022/05/03 02:47:42;;;;;;;;;;;22.80;42.50;;;;;;704081;28;801;-79